Terminal Aerodrome Forecast
Issued by NWS

Home | Current Version | Previous Version | Text Only | Print | Product List | Glossary On
Versions: 1 2 3 4 5 6 7 8 9 10 11 12 13 14 15 16 17 18
000
FTUS46 KSEW 260300 AAA
TAFPAE
TAF AMD
KPAE 260325Z 2603/2624 00000KT 2SM BR OVC004
     FM260430 18014KT 2SM BR OVC004
     FM260800 18014KT 4SM BR OVC007
     FM262000 17015G22KT P6SM OVC025=

USA.gov is the U.S. government's official web portal to all federal, state and local government web resources and services.